sensor_id;sensor_type;location;lat;lon;timestamp;pressure;altitude;pressure_sealevel;temperature;humidity
66945;BME280;53853;51.982;5.928;2023-05-07T00:02:03;101563.97;;;16.16;85.25
66945;BME280;53853;51.982;5.928;2023-05-07T00:04:34;101559.94;;;16.12;84.82
66945;BME280;53853;51.982;5.928;2023-05-07T00:07:08;101568.16;;;16.10;84.60
66945;BME280;53853;51.982;5.928;2023-05-07T00:09:38;101565.63;;;16.09;84.25
66945;BME280;53853;51.982;5.928;2023-05-07T00:12:08;101556.91;;;16.07;84.18
66945;BME280;53853;51.982;5.928;2023-05-07T00:14:37;101561.44;;;16.06;84.90
66945;BME280;53853;51.982;5.928;2023-05-07T00:17:07;101565.66;;;16.01;84.69
66945;BME280;53853;51.982;5.928;2023-05-07T00:19:37;101565.97;;;15.98;84.81
66945;BME280;53853;51.982;5.928;2023-05-07T00:22:10;101568.66;;;15.98;84.92
66945;BME280;53853;51.982;5.928;2023-05-07T00:24:39;101565.97;;;15.98;84.82
66945;BME280;53853;51.982;5.928;2023-05-07T00:27:09;101567.63;;;15.99;84.88
66945;BME280;53853;51.982;5.928;2023-05-07T00:29:39;101565.97;;;15.98;85.09
66945;BME280;53853;51.982;5.928;2023-05-07T00:32:09;101559.06;;;15.95;84.84
66945;BME280;53853;51.982;5.928;2023-05-07T00:34:40;101560.09;;;15.94;84.68
66945;BME280;53853;51.982;5.928;2023-05-07T00:37:12;101556.22;;;15.88;84.84
66945;BME280;53853;51.982;5.928;2023-05-07T00:39:42;101554.88;;;15.84;84.40
66945;BME280;53853;51.982;5.928;2023-05-07T00:42:12;101553.22;;;15.83;84.57
66945;BME280;53853;51.982;5.928;2023-05-07T00:44:42;101546.97;;;15.83;84.77
66945;BME280;53853;51.982;5.928;2023-05-07T00:47:13;101549.16;;;15.79;84.67
66945;BME280;53853;51.982;5.928;2023-05-07T00:49:44;101546.63;;;15.78;84.86
66945;BME280;53853;51.982;5.928;2023-05-07T00:52:18;101547.66;;;15.77;85.03
66945;BME280;53853;51.982;5.928;2023-05-07T00:54:49;101534.53;;;15.73;85.03
66945;BME280;53853;51.982;5.928;2023-05-07T00:57:19;101540.22;;;15.70;84.69
66945;BME280;53853;51.982;5.928;2023-05-07T00:59:51;101538.03;;;15.66;84.57
66945;BME280;53853;51.982;5.928;2023-05-07T01:02:21;101533.16;;;15.61;84.41
66945;BME280;53853;51.982;5.928;2023-05-07T01:04:51;101531.81;;;15.57;84.67
66945;BME280;53853;51.982;5.928;2023-05-07T01:07:24;101530.63;;;15.51;84.57
66945;BME280;53853;51.982;5.928;2023-05-07T01:09:54;101540.03;;;15.47;84.55
66945;BME280;53853;51.982;5.928;2023-05-07T01:12:24;101540.19;;;15.46;84.61
66945;BME280;53853;51.982;5.928;2023-05-07T01:14:54;101523.56;;;15.42;84.86
66945;BME280;53853;51.982;5.928;2023-05-07T01:17:25;101521.88;;;15.41;84.72
66945;BME280;53853;51.982;5.928;2023-05-07T01:19:55;101527.56;;;15.38;84.89
66945;BME280;53853;51.982;5.928;2023-05-07T01:22:31;101528.59;;;15.37;84.94
66945;BME280;53853;51.982;5.928;2023-05-07T01:25:04;101530.91;;;15.32;84.78
66945;BME280;53853;51.982;5.928;2023-05-07T01:27:35;101521.53;;;15.28;85.11
66945;BME280;53853;51.982;5.928;2023-05-07T01:30:06;101524.38;;;15.26;85.01
66945;BME280;53853;51.982;5.928;2023-05-07T01:32:45;101519.00;;;15.26;85.26
66945;BME280;53853;51.982;5.928;2023-05-07T01:35:19;101517.81;;;15.29;85.32
66945;BME280;53853;51.982;5.928;2023-05-07T01:37:52;101521.19;;;15.31;85.62
66945;BME280;53853;51.982;5.928;2023-05-07T01:40:23;101524.53;;;15.33;85.62
66945;BME280;53853;51.982;5.928;2023-05-07T01:42:55;101528.75;;;15.35;85.39
66945;BME280;53853;51.982;5.928;2023-05-07T01:45:25;101523.38;;;15.35;85.32
66945;BME280;53853;51.982;5.928;2023-05-07T01:47:55;101520.53;;;15.37;85.28
66945;BME280;53853;51.982;5.928;2023-05-07T01:50:26;101515.16;;;15.37;85.24
66945;BME280;53853;51.982;5.928;2023-05-07T01:52:59;101519.50;;;15.38;85.65
66945;BME280;53853;51.982;5.928;2023-05-07T01:55:30;101515.16;;;15.37;85.68
66945;BME280;53853;51.982;5.928;2023-05-07T01:58:00;101514.16;;;15.38;85.41
66945;BME280;53853;51.982;5.928;2023-05-07T02:00:31;101523.91;;;15.39;85.55
66945;BME280;53853;51.982;5.928;2023-05-07T02:03:01;101526.56;;;15.39;85.52
66945;BME280;53853;51.982;5.928;2023-05-07T02:05:41;101530.78;;;15.42;85.46
66945;BME280;53853;51.982;5.928;2023-05-07T02:08:25;101534.16;;;15.44;85.58
66945;BME280;53853;51.982;5.928;2023-05-07T02:10:55;101531.47;;;15.44;85.26
66945;BME280;53853;51.982;5.928;2023-05-07T02:13:26;101535.97;;;15.43;85.01
66945;BME280;53853;51.982;5.928;2023-05-07T02:15:56;101531.28;;;15.45;85.34
66945;BME280;53853;51.982;5.928;2023-05-07T02:18:28;101528.59;;;15.45;84.81
66945;BME280;53853;51.982;5.928;2023-05-07T02:20:59;101530.28;;;15.46;85.36
66945;BME280;53853;51.982;5.928;2023-05-07T02:23:31;101524.06;;;15.46;85.05
66945;BME280;53853;51.982;5.928;2023-05-07T02:26:04;101523.06;;;15.47;85.01
66945;BME280;53853;51.982;5.928;2023-05-07T02:28:34;101522.22;;;15.46;84.93
66945;BME280;53853;51.982;5.928;2023-05-07T02:31:06;101516.84;;;15.46;85.01
66945;BME280;53853;51.982;5.928;2023-05-07T02:33:36;101523.22;;;15.45;85.16
66945;BME280;53853;51.982;5.928;2023-05-07T02:36:09;101519.53;;;15.46;85.07
66945;BME280;53853;51.982;5.928;2023-05-07T02:38:57;101511.47;;;15.46;85.21
66945;BME280;53853;51.982;5.928;2023-05-07T02:41:28;101514.16;;;15.46;85.70
66945;BME280;53853;51.982;5.928;2023-05-07T02:43:58;101517.00;;;15.45;85.30
66945;BME280;53853;51.982;5.928;2023-05-07T02:46:28;101514.47;;;15.43;85.47
66945;BME280;53853;51.982;5.928;2023-05-07T02:49:06;101520.88;;;15.42;85.06
66945;BME280;53853;51.982;5.928;2023-05-07T02:51:36;101526.56;;;15.39;84.84
66945;BME280;53853;51.982;5.928;2023-05-07T02:54:13;101529.25;;;15.39;84.99
66945;BME280;53853;51.982;5.928;2023-05-07T02:56:44;101531.28;;;15.37;84.82
66945;BME280;53853;51.982;5.928;2023-05-07T02:59:14;101540.00;;;15.39;85.11
66945;BME280;53853;51.982;5.928;2023-05-07T03:01:44;101529.25;;;15.39;84.90
66945;BME280;53853;51.982;5.928;2023-05-07T03:04:15;101527.56;;;15.38;84.65
66945;BME280;53853;51.982;5.928;2023-05-07T03:06:45;101530.09;;;15.39;84.69
66945;BME280;53853;51.982;5.928;2023-05-07T03:09:17;101529.09;;;15.40;84.94
66945;BME280;53853;51.982;5.928;2023-05-07T03:11:47;101531.13;;;15.38;84.54
66945;BME280;53853;51.982;5.928;2023-05-07T03:14:17;101529.25;;;15.39;84.75
66945;BME280;53853;51.982;5.928;2023-05-07T03:16:48;101520.22;;;15.40;85.07
66945;BME280;53853;51.982;5.928;2023-05-07T03:19:18;101525.75;;;15.38;85.10
66945;BME280;53853;51.982;5.928;2023-05-07T03:21:48;101526.56;;;15.39;85.02
66945;BME280;53853;51.982;5.928;2023-05-07T03:24:20;101522.91;;;15.40;84.86
66945;BME280;53853;51.982;5.928;2023-05-07T03:26:50;101517.53;;;15.40;84.87
66945;BME280;53853;51.982;5.928;2023-05-07T03:29:20;101512.97;;;15.40;84.93
66945;BME280;53853;51.982;5.928;2023-05-07T03:31:50;101516.50;;;15.41;84.50
66945;BME280;53853;51.982;5.928;2023-05-07T03:34:20;101513.81;;;15.41;84.24
66945;BME280;53853;51.982;5.928;2023-05-07T03:36:50;101514.84;;;15.40;83.94
66945;BME280;53853;51.982;5.928;2023-05-07T03:39:26;101516.50;;;15.41;84.18
66945;BME280;53853;51.982;5.928;2023-05-07T03:41:57;101513.31;;;15.37;84.14
66945;BME280;53853;51.982;5.928;2023-05-07T03:44:28;101524.22;;;15.36;84.39
66945;BME280;53853;51.982;5.928;2023-05-07T03:46:59;101513.47;;;15.36;84.60
66945;BME280;53853;51.982;5.928;2023-05-07T03:49:29;101522.53;;;15.35;84.14
66945;BME280;53853;51.982;5.928;2023-05-07T03:51:59;101527.06;;;15.34;84.61
66945;BME280;53853;51.982;5.928;2023-05-07T03:54:34;101522.53;;;15.35;85.16
66945;BME280;53853;51.982;5.928;2023-05-07T03:57:03;101530.09;;;15.31;84.13
66945;BME280;53853;51.982;5.928;2023-05-07T03:59:33;101533.59;;;15.32;84.40
66945;BME280;53853;51.982;5.928;2023-05-07T04:02:03;101534.63;;;15.31;84.47
66945;BME280;53853;51.982;5.928;2023-05-07T04:04:34;101537.31;;;15.31;84.25
66945;BME280;53853;51.982;5.928;2023-05-07T04:07:04;101539.28;;;15.29;84.79
66945;BME280;53853;51.982;5.928;2023-05-07T04:09:41;101538.31;;;15.30;84.97
66945;BME280;53853;51.982;5.928;2023-05-07T04:12:11;101531.94;;;15.31;85.49
66945;BME280;53853;51.982;5.928;2023-05-07T04:14:41;101537.31;;;15.31;85.09
66945;BME280;53853;51.982;5.928;2023-05-07T04:17:11;101535.44;;;15.31;85.18
66945;BME280;53853;51.982;5.928;2023-05-07T04:19:41;101540.16;;;15.29;84.68
66945;BME280;53853;51.982;5.928;2023-05-07T04:22:13;101541.97;;;15.29;84.96
66945;BME280;53853;51.982;5.928;2023-05-07T04:24:45;101545.38;;;15.31;84.98
66945;BME280;53853;51.982;5.928;2023-05-07T04:27:15;101542.50;;;15.32;84.79
66945;BME280;53853;51.982;5.928;2023-05-07T04:29:45;101545.03;;;15.34;84.90
66945;BME280;53853;51.982;5.928;2023-05-07T04:32:16;101545.88;;;15.34;85.10
66945;BME280;53853;51.982;5.928;2023-05-07T04:34:46;101549.38;;;15.35;85.39
66945;BME280;53853;51.982;5.928;2023-05-07T04:37:16;101550.25;;;15.35;85.58
66945;BME280;53853;51.982;5.928;2023-05-07T04:39:49;101553.75;;;15.36;85.70
66945;BME280;53853;51.982;5.928;2023-05-07T04:42:19;101553.94;;;15.34;85.59
66945;BME280;53853;51.982;5.928;2023-05-07T04:44:53;101555.78;;;15.34;85.93
66945;BME280;53853;51.982;5.928;2023-05-07T04:47:24;101560.44;;;15.32;85.76
66945;BME280;53853;51.982;5.928;2023-05-07T04:49:54;101552.41;;;15.32;85.91
66945;BME280;53853;51.982;5.928;2023-05-07T04:52:24;101551.56;;;15.31;85.95
66945;BME280;53853;51.982;5.928;2023-05-07T04:54:58;101552.41;;;15.32;86.05
66945;BME280;53853;51.982;5.928;2023-05-07T04:57:33;101555.09;;;15.32;86.00
66945;BME280;53853;51.982;5.928;2023-05-07T05:00:06;101546.03;;;15.33;86.05
66945;BME280;53853;51.982;5.928;2023-05-07T05:02:37;101553.94;;;15.34;86.02
66945;BME280;53853;51.982;5.928;2023-05-07T05:05:08;101551.25;;;15.34;86.15
66945;BME280;53853;51.982;5.928;2023-05-07T05:07:38;101558.13;;;15.37;86.18
66945;BME280;53853;51.982;5.928;2023-05-07T05:10:11;101564.03;;;15.40;86.58
66945;BME280;53853;51.982;5.928;2023-05-07T05:12:42;101563.84;;;15.42;86.31
66945;BME280;53853;51.982;5.928;2023-05-07T05:15:12;101576.09;;;15.45;86.45
66945;BME280;53853;51.982;5.928;2023-05-07T05:17:43;101575.94;;;15.46;86.40
66945;BME280;53853;51.982;5.928;2023-05-07T05:20:13;101568.41;;;15.50;86.81
66945;BME280;53853;51.982;5.928;2023-05-07T05:22:42;101571.25;;;15.48;86.44
66945;BME280;53853;51.982;5.928;2023-05-07T05:25:16;101570.59;;;15.54;86.76
66945;BME280;53853;51.982;5.928;2023-05-07T05:27:47;101566.91;;;15.55;86.57
66945;BME280;53853;51.982;5.928;2023-05-07T05:30:17;101576.00;;;15.63;86.61
66945;BME280;53853;51.982;5.928;2023-05-07T05:32:47;101573.13;;;15.64;86.68
66945;BME280;53853;51.982;5.928;2023-05-07T05:35:17;101570.44;;;15.64;86.60
66945;BME280;53853;51.982;5.928;2023-05-07T05:37:47;101577.31;;;15.67;86.67
66945;BME280;53853;51.982;5.928;2023-05-07T05:40:21;101577.31;;;15.67;86.52
66945;BME280;53853;51.982;5.928;2023-05-07T05:42:51;101580.88;;;15.67;86.49
66945;BME280;53853;51.982;5.928;2023-05-07T05:45:21;101594.13;;;15.69;86.54
66945;BME280;53853;51.982;5.928;2023-05-07T05:47:51;101587.06;;;15.68;86.36
66945;BME280;53853;51.982;5.928;2023-05-07T05:50:22;101588.78;;;15.69;86.12
66945;BME280;53853;51.982;5.928;2023-05-07T05:52:52;101597.34;;;15.72;86.42
66945;BME280;53853;51.982;5.928;2023-05-07T05:55:26;101601.53;;;15.75;86.57
66945;BME280;53853;51.982;5.928;2023-05-07T05:57:56;101605.75;;;15.78;86.05
66945;BME280;53853;51.982;5.928;2023-05-07T06:00:27;101603.94;;;15.78;85.86
66945;BME280;53853;51.982;5.928;2023-05-07T06:03:02;101601.91;;;15.80;86.25
66945;BME280;53853;51.982;5.928;2023-05-07T06:05:32;101601.75;;;15.82;86.08
66945;BME280;53853;51.982;5.928;2023-05-07T06:08:02;101601.59;;;15.83;86.36
66945;BME280;53853;51.982;5.928;2023-05-07T06:10:37;101604.94;;;15.85;86.44
66945;BME280;53853;51.982;5.928;2023-05-07T06:13:08;101599.22;;;15.88;86.69
66945;BME280;53853;51.982;5.928;2023-05-07T06:15:38;101595.56;;;15.89;86.82
66945;BME280;53853;51.982;5.928;2023-05-07T06:18:11;101605.09;;;15.92;86.58
66945;BME280;53853;51.982;5.928;2023-05-07T06:20:41;101600.44;;;15.94;86.39
66945;BME280;53853;51.982;5.928;2023-05-07T06:23:19;101603.44;;;15.99;86.30
66945;BME280;53853;51.982;5.928;2023-05-07T06:25:52;101598.25;;;15.98;85.52
66945;BME280;53853;51.982;5.928;2023-05-07T06:28:26;101598.25;;;15.98;85.36
66945;BME280;53853;51.982;5.928;2023-05-07T06:31:12;101600.59;;;16.01;85.63
66945;BME280;53853;51.982;5.928;2023-05-07T06:33:45;101600.09;;;16.05;85.76
66945;BME280;53853;51.982;5.928;2023-05-07T06:36:15;101605.97;;;16.09;85.67
66945;BME280;53853;51.982;5.928;2023-05-07T06:38:46;101606.13;;;16.16;85.70
66945;BME280;53853;51.982;5.928;2023-05-07T06:41:19;101604.63;;;16.21;85.92
66945;BME280;53853;51.982;5.928;2023-05-07T06:43:48;101610.19;;;16.28;85.85
66945;BME280;53853;51.982;5.928;2023-05-07T06:46:33;101611.53;;;16.32;85.54
66945;BME280;53853;51.982;5.928;2023-05-07T06:49:04;101613.34;;;16.40;85.98
66945;BME280;53853;51.982;5.928;2023-05-07T06:51:34;101614.53;;;16.45;85.93
66945;BME280;53853;51.982;5.928;2023-05-07T06:54:04;101619.09;;;16.45;84.46
66945;BME280;53853;51.982;5.928;2023-05-07T06:56:39;101620.56;;;16.47;83.96
66945;BME280;53853;51.982;5.928;2023-05-07T06:59:09;101616.22;;;16.46;83.20
66945;BME280;53853;51.982;5.928;2023-05-07T07:01:41;101615.72;;;16.51;83.45
66945;BME280;53853;51.982;5.928;2023-05-07T07:04:12;101615.38;;;16.54;83.44
66945;BME280;53853;51.982;5.928;2023-05-07T07:06:43;101618.06;;;16.62;83.85
66945;BME280;53853;51.982;5.928;2023-05-07T07:09:14;101613.00;;;16.67;84.21
66945;BME280;53853;51.982;5.928;2023-05-07T07:11:47;101618.34;;;16.76;84.06
66945;BME280;53853;51.982;5.928;2023-05-07T07:14:17;101616.16;;;16.79;83.30
66945;BME280;53853;51.982;5.928;2023-05-07T07:16:50;101614.50;;;16.87;83.48
66945;BME280;53853;51.982;5.928;2023-05-07T07:19:21;101624.41;;;16.94;82.38
66945;BME280;53853;51.982;5.928;2023-05-07T07:21:53;101624.72;;;16.99;82.15
66945;BME280;53853;51.982;5.928;2023-05-07T07:24:23;101632.44;;;17.02;82.24
66945;BME280;53853;51.982;5.928;2023-05-07T07:26:59;101630.25;;;17.06;82.18
66945;BME280;53853;51.982;5.928;2023-05-07T07:29:30;101631.28;;;17.05;81.30
66945;BME280;53853;51.982;5.928;2023-05-07T07:32:00;101629.41;;;17.06;80.67
66945;BME280;53853;51.982;5.928;2023-05-07T07:34:30;101621.50;;;17.04;80.52
66945;BME280;53853;51.982;5.928;2023-05-07T07:37:01;101627.38;;;17.08;81.09
66945;BME280;53853;51.982;5.928;2023-05-07T07:39:33;101626.22;;;17.10;80.44
66945;BME280;53853;51.982;5.928;2023-05-07T07:42:07;101627.88;;;17.19;81.16
66945;BME280;53853;51.982;5.928;2023-05-07T07:44:37;101634.72;;;17.22;80.55
66945;BME280;53853;51.982;5.928;2023-05-07T07:47:09;101638.78;;;17.26;80.27
66945;BME280;53853;51.982;5.928;2023-05-07T07:49:40;101631.69;;;17.25;78.92
66945;BME280;53853;51.982;5.928;2023-05-07T07:52:10;101642.78;;;17.30;78.88
66945;BME280;53853;51.982;5.928;2023-05-07T07:54:41;101636.34;;;17.39;80.72
66945;BME280;53853;51.982;5.928;2023-05-07T07:57:13;101646.44;;;17.46;79.72
66945;BME280;53853;51.982;5.928;2023-05-07T07:59:43;101641.00;;;17.54;80.33
66945;BME280;53853;51.982;5.928;2023-05-07T08:02:15;101644.38;;;17.56;79.12
66945;BME280;53853;51.982;5.928;2023-05-07T08:04:45;101642.28;;;17.66;79.70
66945;BME280;53853;51.982;5.928;2023-05-07T08:07:15;101643.25;;;17.73;79.55
66945;BME280;53853;51.982;5.928;2023-05-07T08:09:48;101645.06;;;17.81;78.46
66945;BME280;53853;51.982;5.928;2023-05-07T08:12:24;101653.00;;;17.83;78.01
66945;BME280;53853;51.982;5.928;2023-05-07T08:14:54;101648.47;;;17.75;77.25
66945;BME280;53853;51.982;5.928;2023-05-07T08:17:24;101641.94;;;17.69;76.85
66945;BME280;53853;51.982;5.928;2023-05-07T08:19:54;101646.13;;;17.72;77.83
66945;BME280;53853;51.982;5.928;2023-05-07T08:22:24;101643.75;;;17.77;78.36
66945;BME280;53853;51.982;5.928;2023-05-07T08:24:54;101640.34;;;17.83;78.85
66945;BME280;53853;51.982;5.928;2023-05-07T08:27:26;101637.13;;;17.88;79.19
66945;BME280;53853;51.982;5.928;2023-05-07T08:29:56;101646.34;;;17.93;79.21
66945;BME280;53853;51.982;5.928;2023-05-07T08:32:26;101644.81;;;17.99;78.46
66945;BME280;53853;51.982;5.928;2023-05-07T08:34:56;101646.50;;;18.00;78.38
66945;BME280;53853;51.982;5.928;2023-05-07T08:37:26;101643.44;;;18.03;78.60
66945;BME280;53853;51.982;5.928;2023-05-07T08:39:56;101647.91;;;18.11;79.07
66945;BME280;53853;51.982;5.928;2023-05-07T08:42:36;101652.41;;;18.19;79.23
66945;BME280;53853;51.982;5.928;2023-05-07T08:45:09;101646.47;;;18.23;78.69
66945;BME280;53853;51.982;5.928;2023-05-07T08:47:44;101653.75;;;18.23;77.39
66945;BME280;53853;51.982;5.928;2023-05-07T08:50:18;101651.69;;;18.25;77.55
66945;BME280;53853;51.982;5.928;2023-05-07T08:52:50;101650.16;;;18.31;77.91
66945;BME280;53853;51.982;5.928;2023-05-07T08:55:22;101649.78;;;18.34;76.72
66945;BME280;53853;51.982;5.928;2023-05-07T08:57:54;101656.41;;;18.46;77.58
66945;BME280;53853;51.982;5.928;2023-05-07T09:00:25;101653.34;;;18.49;77.52
66945;BME280;53853;51.982;5.928;2023-05-07T09:02:56;101655.13;;;18.57;77.71
66945;BME280;53853;51.982;5.928;2023-05-07T09:05:26;101655.72;;;18.67;78.39
66945;BME280;53853;51.982;5.928;2023-05-07T09:07:59;101656.84;;;18.73;77.42
66945;BME280;53853;51.982;5.928;2023-05-07T09:10:30;101659.28;;;18.82;78.43
66945;BME280;53853;51.982;5.928;2023-05-07T09:13:06;101652.84;;;18.83;76.68
66945;BME280;53853;51.982;5.928;2023-05-07T09:15:37;101658.09;;;18.85;76.30
66945;BME280;53853;51.982;5.928;2023-05-07T09:18:07;101648.63;;;18.89;75.87
66945;BME280;53853;51.982;5.928;2023-05-07T09:20:40;101655.03;;;19.03;76.69
66945;BME280;53853;51.982;5.928;2023-05-07T09:23:10;101658.94;;;19.15;77.22
66945;BME280;53853;51.982;5.928;2023-05-07T09:25:40;101657.91;;;19.31;77.38
66945;BME280;53853;51.982;5.928;2023-05-07T09:28:19;101646.63;;;19.43;76.51
66945;BME280;53853;51.982;5.928;2023-05-07T09:30:49;101650.00;;;19.45;73.47
66945;BME280;53853;51.982;5.928;2023-05-07T09:33:20;101644.94;;;19.57;74.48
66945;BME280;53853;51.982;5.928;2023-05-07T09:35:53;101648.81;;;19.69;75.26
66945;BME280;53853;51.982;5.928;2023-05-07T09:38:23;101646.94;;;19.84;74.88
66945;BME280;53853;51.982;5.928;2023-05-07T09:41:04;101652.09;;;20.01;74.63
66945;BME280;53853;51.982;5.928;2023-05-07T09:43:44;101642.59;;;20.05;73.17
66945;BME280;53853;51.982;5.928;2023-05-07T09:46:16;101642.66;;;20.12;73.34
66945;BME280;53853;51.982;5.928;2023-05-07T09:48:53;101646.22;;;20.19;73.61
66945;BME280;53853;51.982;5.928;2023-05-07T09:51:30;101648.22;;;20.32;73.63
66945;BME280;53853;51.982;5.928;2023-05-07T09:54:05;101652.94;;;20.44;74.10
66945;BME280;53853;51.982;5.928;2023-05-07T09:56:40;101649.94;;;20.61;72.89
66945;BME280;53853;51.982;5.928;2023-05-07T09:59:16;101654.25;;;20.55;68.95
66945;BME280;53853;51.982;5.928;2023-05-07T10:01:46;101650.44;;;20.71;68.72
66945;BME280;53853;51.982;5.928;2023-05-07T10:04:18;101652.56;;;20.76;69.38
66945;BME280;53853;51.982;5.928;2023-05-07T10:06:50;101649.91;;;20.83;70.55
66945;BME280;53853;51.982;5.928;2023-05-07T10:09:21;101652.91;;;20.94;71.11
66945;BME280;53853;51.982;5.928;2023-05-07T10:11:51;101649.63;;;21.06;70.89
66945;BME280;53853;51.982;5.928;2023-05-07T10:14:25;101654.69;;;21.15;70.95
66945;BME280;53853;51.982;5.928;2023-05-07T10:16:55;101655.38;;;21.24;69.84
66945;BME280;53853;51.982;5.928;2023-05-07T10:19:26;101662.72;;;21.37;70.66
66945;BME280;53853;51.982;5.928;2023-05-07T10:22:03;101656.50;;;21.43;68.61
66945;BME280;53853;51.982;5.928;2023-05-07T10:24:39;101651.13;;;21.50;69.05
66945;BME280;53853;51.982;5.928;2023-05-07T10:27:15;101654.31;;;21.60;68.27
66945;BME280;53853;51.982;5.928;2023-05-07T10:29:59;101657.88;;;21.74;69.44
66945;BME280;53853;51.982;5.928;2023-05-07T10:32:38;101652.44;;;21.74;66.24
66945;BME280;53853;51.982;5.928;2023-05-07T10:35:17;101652.91;;;21.78;67.67
66945;BME280;53853;51.982;5.928;2023-05-07T10:37:49;101646.88;;;21.89;65.52
66945;BME280;53853;51.982;5.928;2023-05-07T10:40:32;101653.13;;;21.96;65.64
66945;BME280;53853;51.982;5.928;2023-05-07T10:43:04;101654.41;;;22.00;65.22
66945;BME280;53853;51.982;5.928;2023-05-07T10:45:43;101647.28;;;21.99;65.03
66945;BME280;53853;51.982;5.928;2023-05-07T10:48:14;101644.59;;;21.99;64.74
66945;BME280;53853;51.982;5.928;2023-05-07T10:51:21;101650.22;;;21.98;61.89
66945;BME280;53853;51.982;5.928;2023-05-07T10:54:22;101648.53;;;21.90;65.25
66945;BME280;53853;51.982;5.928;2023-05-07T10:57:32;101654.81;;;21.97;66.88
66945;BME280;53853;51.982;5.928;2023-05-07T11:03:15;101646.69;;;22.04;62.68
66945;BME280;53853;51.982;5.928;2023-05-07T11:06:17;101646.28;;;22.07;64.16
66945;BME280;53853;51.982;5.928;2023-05-07T11:08:56;101637.72;;;22.10;65.87
66945;BME280;53853;51.982;5.928;2023-05-07T11:11:46;101643.56;;;22.14;65.66
66945;BME280;53853;51.982;5.928;2023-05-07T11:14:46;101642.31;;;22.16;63.43
66945;BME280;53853;51.982;5.928;2023-05-07T11:17:25;101636.06;;;22.16;62.91
66945;BME280;53853;51.982;5.928;2023-05-07T11:20:06;101636.44;;;22.06;60.55
66945;BME280;53853;51.982;5.928;2023-05-07T11:22:50;101637.72;;;21.97;61.45
66945;BME280;53853;51.982;5.928;2023-05-07T11:25:36;101634.59;;;22.06;62.03
66945;BME280;53853;51.982;5.928;2023-05-07T11:28:13;101636.69;;;22.18;64.01
66945;BME280;53853;51.982;5.928;2023-05-07T11:30:49;101641.69;;;22.28;64.68
66945;BME280;53853;51.982;5.928;2023-05-07T11:33:21;101642.78;;;22.33;64.27
66945;BME280;53853;51.982;5.928;2023-05-07T11:35:56;101647.78;;;22.43;64.10
66945;BME280;53853;51.982;5.928;2023-05-07T11:38:35;101649.25;;;22.59;66.14
66945;BME280;53853;51.982;5.928;2023-05-07T11:41:06;101646.09;;;22.75;66.33
66945;BME280;53853;51.982;5.928;2023-05-07T11:43:37;101648.16;;;22.80;64.21
66945;BME280;53853;51.982;5.928;2023-05-07T11:46:08;101643.38;;;22.89;58.78
66945;BME280;53853;51.982;5.928;2023-05-07T11:48:39;101646.28;;;22.94;60.14
66945;BME280;53853;51.982;5.928;2023-05-07T11:51:11;101651.06;;;23.05;61.67
66945;BME280;53853;51.982;5.928;2023-05-07T11:53:43;101645.81;;;23.04;58.35
66945;BME280;53853;51.982;5.928;2023-05-07T11:56:14;101654.63;;;22.99;59.44
66945;BME280;53853;51.982;5.928;2023-05-07T11:58:46;101644.34;;;23.01;55.92
66945;BME280;53853;51.982;5.928;2023-05-07T12:01:16;101651.66;;;23.07;59.15
66945;BME280;53853;51.982;5.928;2023-05-07T12:03:46;101646.03;;;23.15;56.75
66945;BME280;53853;51.982;5.928;2023-05-07T12:06:19;101643.50;;;23.21;57.37
66945;BME280;53853;51.982;5.928;2023-05-07T12:08:49;101643.91;;;23.24;58.13
66945;BME280;53853;51.982;5.928;2023-05-07T12:11:23;101646.59;;;23.31;59.65
66945;BME280;53853;51.982;5.928;2023-05-07T12:13:55;101644.72;;;23.38;60.04
66945;BME280;53853;51.982;5.928;2023-05-07T12:16:25;101638.84;;;23.41;58.67
66945;BME280;53853;51.982;5.928;2023-05-07T12:18:55;101650.75;;;23.40;59.75
66945;BME280;53853;51.982;5.928;2023-05-07T12:21:29;101648.22;;;23.45;59.01
66945;BME280;53853;51.982;5.928;2023-05-07T12:23:58;101655.13;;;23.48;58.69
66945;BME280;53853;51.982;5.928;2023-05-07T12:26:28;101655.94;;;23.48;60.01
66945;BME280;53853;51.982;5.928;2023-05-07T12:28:58;101644.03;;;23.49;58.92
66945;BME280;53853;51.982;5.928;2023-05-07T12:31:28;101650.28;;;23.50;60.99
66945;BME280;53853;51.982;5.928;2023-05-07T12:33:58;101645.69;;;23.50;54.69
66945;BME280;53853;51.982;5.928;2023-05-07T12:36:36;101656.75;;;23.56;56.89
66945;BME280;53853;51.982;5.928;2023-05-07T12:39:07;101653.81;;;23.57;58.64
66945;BME280;53853;51.982;5.928;2023-05-07T12:41:53;101654.25;;;23.54;55.24
66945;BME280;53853;51.982;5.928;2023-05-07T12:44:23;101655.75;;;23.43;58.69
66945;BME280;53853;51.982;5.928;2023-05-07T12:46:53;101659.53;;;23.42;59.06
66945;BME280;53853;51.982;5.928;2023-05-07T12:49:24;101662.88;;;23.44;59.67
66945;BME280;53853;51.982;5.928;2023-05-07T12:51:57;101669.19;;;23.38;57.13
66945;BME280;53853;51.982;5.928;2023-05-07T12:54:28;101675.09;;;23.28;57.94
66945;BME280;53853;51.982;5.928;2023-05-07T12:57:02;101674.25;;;23.21;60.26
66945;BME280;53853;51.982;5.928;2023-05-07T12:59:33;101673.00;;;23.17;60.98
66945;BME280;53853;51.982;5.928;2023-05-07T13:02:03;101663.00;;;23.11;60.15
66945;BME280;53853;51.982;5.928;2023-05-07T13:04:33;101671.97;;;23.11;59.85
66945;BME280;53853;51.982;5.928;2023-05-07T13:07:05;101669.25;;;23.11;61.52
66945;BME280;53853;51.982;5.928;2023-05-07T13:09:35;101668.84;;;23.14;62.68
66945;BME280;53853;51.982;5.928;2023-05-07T13:12:05;101672.56;;;23.20;62.65
66945;BME280;53853;51.982;5.928;2023-05-07T13:14:35;101676.94;;;23.28;62.96
66945;BME280;53853;51.982;5.928;2023-05-07T13:17:05;101671.28;;;23.29;59.73
66945;BME280;53853;51.982;5.928;2023-05-07T13:19:35;101675.47;;;23.32;61.24
66945;BME280;53853;51.982;5.928;2023-05-07T13:22:07;101667.72;;;23.36;62.02